createdAt,value
2018-06-25T00:00:18.313Z,3.00
2018-06-25T00:05:12.920Z,3.40
2018-06-25T00:10:07.464Z,4.67
2018-06-25T00:15:01.947Z,3.90
2018-06-25T00:19:56.460Z,2.90
2018-06-25T00:24:50.885Z,4.40
2018-06-25T00:29:45.389Z,3.80
2018-06-25T00:34:39.925Z,5.13
2018-06-25T00:39:34.575Z,3.87
2018-06-25T00:44:29.085Z,4.57
2018-06-25T00:49:23.579Z,4.00
2018-06-25T00:54:18.110Z,3.17
2018-06-25T00:59:29.314Z,5.47
2018-06-25T01:04:23.828Z,4.37
2018-06-25T01:09:18.329Z,5.53
2018-06-25T01:14:12.833Z,4.33
2018-06-25T01:19:07.454Z,4.33
2018-06-25T01:24:02.389Z,6.67
2018-06-25T01:28:56.850Z,3.47
2018-06-25T01:33:51.268Z,5.93
2018-06-25T01:38:45.736Z,4.73
2018-06-25T01:43:40.297Z,4.93
2018-06-25T01:48:34.858Z,5.73
2018-06-25T01:53:29.274Z,4.57
2018-06-25T01:58:23.760Z,5.13
2018-06-25T02:03:18.212Z,7.03
2018-06-25T02:08:12.784Z,6.57
2018-06-25T02:13:08.100Z,4.43
2018-06-25T02:18:02.616Z,6.23
2018-06-25T02:22:57.115Z,5.67
2018-06-25T02:27:51.625Z,5.83
2018-06-25T02:32:46.105Z,6.23
2018-06-25T02:37:40.632Z,4.10
2018-06-25T02:42:35.145Z,10.23
2018-06-25T02:47:29.708Z,5.97
2018-06-25T02:52:24.444Z,5.73
2018-06-25T02:57:18.950Z,6.60
2018-06-25T03:02:13.440Z,6.77
2018-06-25T03:07:07.937Z,7.20
2018-06-25T03:12:02.527Z,6.13
2018-06-25T03:17:09.174Z,7.70
2018-06-25T03:22:03.939Z,6.50
2018-06-25T03:26:58.529Z,6.10
2018-06-25T03:31:53.013Z,7.97
2018-06-25T03:36:47.599Z,8.27
2018-06-25T03:41:42.180Z,8.30
2018-06-25T03:46:36.689Z,10.47
2018-06-25T03:51:31.224Z,7.93
2018-06-25T03:56:26.398Z,8.90
2018-06-25T04:02:50.370Z,13.23
2018-06-25T04:07:44.879Z,9.63
2018-06-25T04:12:39.450Z,8.90
2018-06-25T04:17:33.924Z,10.70
2018-06-25T04:22:28.189Z,10.60
2018-06-25T04:27:22.783Z,9.40
2018-06-25T04:32:17.248Z,10.00
2018-06-25T04:37:11.453Z,9.23
2018-06-25T04:42:06.079Z,8.87
2018-06-25T04:47:00.584Z,11.20
2018-06-25T04:51:55.072Z,11.50
2018-06-25T04:56:49.568Z,11.77
2018-06-25T05:01:44.041Z,11.50
2018-06-25T05:06:38.620Z,11.53
2018-06-25T05:11:33.137Z,11.73
2018-06-25T05:16:27.688Z,12.40
2018-06-25T05:21:22.213Z,12.27
2018-06-25T05:26:16.885Z,12.07
2018-06-25T05:31:11.441Z,11.30
2018-06-25T05:36:06.142Z,10.37
2018-06-25T05:41:00.580Z,10.70
2018-06-25T05:45:55.060Z,10.40
2018-06-25T05:50:49.464Z,9.40
2018-06-25T05:55:44.281Z,8.63
2018-06-25T06:00:38.708Z,9.83
2018-06-25T06:05:33.405Z,11.63
2018-06-25T06:10:27.976Z,12.77
2018-06-25T06:15:22.533Z,14.27
2018-06-25T06:20:17.031Z,14.33
2018-06-25T06:25:11.310Z,16.73
2018-06-25T06:30:06.003Z,12.87
2018-06-25T06:35:00.513Z,13.70
2018-06-25T06:39:55.116Z,14.70
2018-06-25T06:44:49.591Z,14.23
2018-06-25T06:49:44.232Z,9.90
2018-06-25T06:54:42.651Z,9.10
2018-06-25T06:59:40.285Z,9.80
2018-06-25T07:04:37.023Z,9.83
2018-06-25T07:09:31.540Z,8.73
2018-06-25T07:14:26.078Z,8.23
2018-06-25T07:20:52.349Z,12.83
2018-06-25T07:25:47.795Z,8.40
2018-06-25T07:30:42.421Z,7.53
2018-06-25T07:35:37.032Z,8.53
2018-06-25T07:40:32.174Z,9.50
2018-06-25T07:45:27.054Z,7.47
2018-06-25T07:50:22.352Z,8.17
2018-06-25T07:55:17.888Z,7.60
2018-06-25T08:00:12.686Z,8.37
2018-06-25T08:05:07.330Z,7.57
2018-06-25T08:10:12.122Z,6.70
2018-06-25T08:15:06.920Z,12.40
2018-06-25T08:20:01.741Z,9.57
2018-06-25T08:24:58.040Z,11.47
2018-06-25T08:29:52.895Z,10.23
2018-06-25T08:34:47.581Z,11.27
2018-06-25T08:39:42.158Z,11.67
2018-06-25T08:44:36.666Z,9.73
2018-06-25T08:49:31.565Z,8.47
2018-06-25T08:54:26.965Z,15.87
2018-06-25T08:59:21.730Z,9.77
2018-06-25T09:04:16.327Z,10.90
2018-06-25T09:09:13.265Z,10.57
2018-06-25T09:14:08.626Z,8.17
2018-06-25T09:19:03.730Z,9.33
2018-06-25T09:23:59.269Z,6.23
2018-06-25T09:28:55.494Z,6.87
2018-06-25T09:33:50.202Z,5.03
2018-06-25T09:38:44.856Z,5.50
2018-06-25T09:43:39.534Z,4.23
2018-06-25T09:48:34.471Z,5.43
2018-06-25T09:53:29.270Z,5.97
2018-06-25T09:58:23.856Z,4.17
2018-06-25T10:03:18.455Z,3.53
2018-06-25T10:08:12.645Z,5.37
2018-06-25T10:13:07.178Z,4.13
2018-06-25T10:18:01.751Z,4.47
2018-06-25T10:22:56.354Z,3.37
2018-06-25T10:27:51.163Z,4.40
2018-06-25T10:32:46.380Z,5.47
2018-06-25T10:37:43.497Z,1.90
2018-06-25T10:42:38.299Z,2.70
2018-06-25T10:47:32.732Z,2.10
2018-06-25T10:52:27.288Z,2.47
2018-06-25T10:57:22.035Z,1.87
2018-06-25T11:02:16.850Z,2.47
2018-06-25T11:07:13.311Z,3.43
2018-06-25T11:12:07.651Z,2.20
2018-06-25T11:17:02.754Z,9.20
2018-06-25T11:22:01.604Z,4.67
2018-06-25T11:26:56.229Z,2.60
2018-06-25T11:31:55.313Z,1.80
2018-06-25T11:36:50.835Z,1.90
2018-06-25T11:41:45.428Z,3.97
2018-06-25T11:46:41.803Z,2.27
2018-06-25T11:51:36.539Z,4.10
2018-06-25T11:56:31.102Z,2.57
2018-06-25T12:01:25.684Z,2.50
2018-06-25T12:06:20.297Z,2.07
2018-06-25T12:11:14.877Z,1.40
2018-06-25T12:16:09.605Z,3.55
2018-06-25T12:21:04.385Z,1.75
2018-06-25T12:25:59.214Z,1.33
2018-06-25T12:30:54.321Z,3.20
2018-06-25T12:35:48.844Z,0.77
2018-06-25T12:40:43.994Z,3.03
2018-06-25T12:45:41.070Z,9.53
2018-06-25T12:50:35.869Z,3.12
2018-06-25T12:55:30.765Z,4.10
2018-06-25T13:00:27.576Z,1.72
2018-06-25T13:05:31.779Z,3.00
2018-06-25T13:10:27.013Z,4.33
2018-06-25T13:15:21.763Z,3.27
2018-06-25T13:20:19.634Z,5.20
2018-06-25T13:25:14.509Z,2.72
2018-06-25T13:30:10.618Z,4.53
2018-06-25T13:35:23.964Z,1.37
2018-06-25T13:40:18.674Z,1.22
2018-06-25T13:45:13.540Z,3.22
2018-06-25T13:50:08.578Z,2.42
2018-06-25T13:55:07.244Z,1.57
2018-06-25T14:00:02.429Z,3.90
2018-06-25T14:04:57.057Z,1.92
2018-06-25T14:09:51.738Z,1.90
2018-06-25T14:14:46.390Z,2.12
2018-06-25T14:19:41.133Z,1.85
2018-06-25T14:24:43.940Z,2.80
2018-06-25T14:29:39.031Z,0.95
2018-06-25T14:34:33.687Z,0.53
2018-06-25T14:39:28.514Z,1.95
2018-06-25T14:44:23.137Z,1.15
2018-06-25T14:49:18.268Z,1.82
2018-06-25T14:54:35.757Z,1.80
2018-06-25T14:59:30.352Z,2.15
2018-06-25T15:04:25.221Z,2.27
2018-06-25T15:09:19.852Z,2.30
2018-06-25T15:14:14.488Z,1.40
2018-06-25T15:19:09.329Z,1.62
2018-06-25T15:24:04.574Z,1.57
2018-06-25T15:28:59.409Z,2.35
2018-06-25T15:33:54.135Z,1.47
2018-06-25T15:38:48.787Z,2.83
2018-06-25T15:43:43.471Z,0.50
2018-06-25T15:48:37.735Z,3.33
2018-06-25T15:53:32.480Z,1.52
2018-06-25T15:58:27.094Z,0.85
2018-06-25T16:03:21.669Z,1.65
2018-06-25T16:08:16.262Z,1.40
2018-06-25T16:13:10.966Z,1.00
2018-06-25T16:18:05.624Z,1.75
2018-06-25T16:23:00.283Z,2.85
2018-06-25T16:27:54.903Z,1.80
2018-06-25T16:32:49.457Z,1.62
2018-06-25T16:37:45.233Z,2.15
2018-06-25T16:42:40.157Z,1.12
2018-06-25T16:47:34.955Z,2.25
2018-06-25T16:52:29.707Z,1.65
2018-06-25T16:57:24.242Z,2.02
2018-06-25T17:02:18.837Z,2.92
2018-06-25T17:07:13.423Z,1.72
2018-06-25T17:12:08.061Z,3.10
2018-06-25T17:17:02.659Z,1.27
2018-06-25T17:21:57.294Z,1.77
2018-06-25T17:26:51.913Z,1.00
2018-06-25T17:31:46.476Z,1.10
2018-06-25T17:36:41.018Z,2.45
2018-06-25T17:41:35.601Z,1.00
2018-06-25T17:46:30.159Z,0.88
2018-06-25T17:51:24.765Z,1.20
2018-06-25T17:56:19.347Z,2.60
2018-06-25T18:01:14.027Z,2.03
2018-06-25T18:06:08.534Z,0.80
2018-06-25T18:12:32.622Z,2.30
2018-06-25T18:17:27.285Z,1.17
2018-06-25T18:22:21.877Z,1.30
2018-06-25T18:27:16.131Z,1.40
2018-06-25T18:32:10.669Z,2.30
2018-06-25T18:37:05.251Z,2.73
2018-06-25T18:41:59.837Z,2.27
2018-06-25T18:46:54.418Z,1.70
2018-06-25T18:51:48.964Z,1.83
2018-06-25T18:56:43.587Z,2.57
2018-06-25T19:01:38.207Z,1.50
2018-06-25T19:06:32.815Z,1.93
2018-06-25T19:11:27.452Z,3.00
2018-06-25T19:16:22.118Z,3.37
2018-06-25T19:26:42.809Z,1.87
2018-06-25T19:31:37.410Z,1.13
2018-06-25T19:36:32.057Z,4.27
2018-06-25T19:41:26.637Z,1.03
2018-06-25T19:46:21.310Z,2.00
2018-06-25T19:51:15.998Z,3.13
2018-06-25T19:56:10.551Z,0.93
2018-06-25T20:01:05.164Z,2.17
2018-06-25T20:05:59.775Z,1.60
2018-06-25T20:10:54.278Z,1.73
2018-06-25T20:15:48.945Z,1.03
2018-06-25T20:20:43.531Z,1.63
2018-06-25T20:25:38.105Z,3.07
2018-06-25T20:30:32.417Z,1.73
2018-06-25T20:35:26.970Z,2.17
2018-06-25T20:40:21.545Z,1.20
2018-06-25T20:45:16.125Z,1.00
2018-06-25T20:50:10.691Z,1.20
2018-06-25T20:55:05.649Z,1.27
2018-06-25T21:00:00.333Z,1.53
2018-06-25T21:04:55.023Z,1.50
2018-06-25T21:09:49.562Z,2.70
2018-06-25T21:14:44.096Z,1.03
2018-06-25T21:19:39.209Z,0.80
2018-06-25T21:24:33.734Z,1.30
2018-06-25T21:29:28.336Z,1.33
2018-06-25T21:34:22.905Z,2.60
2018-06-25T21:39:17.432Z,1.73
2018-06-25T21:44:12.021Z,1.37
2018-06-25T21:50:36.121Z,0.80
2018-06-25T21:55:30.672Z,2.07
2018-06-25T22:00:31.606Z,1.40
2018-06-25T22:05:26.116Z,1.80
2018-06-25T22:10:20.365Z,1.43
2018-06-25T22:15:14.991Z,0.90
2018-06-25T22:20:09.652Z,2.47
2018-06-25T22:25:04.273Z,2.53
2018-06-25T22:29:58.925Z,1.30
2018-06-25T22:34:53.448Z,2.87
2018-06-25T22:39:48.048Z,2.07
2018-06-25T22:44:42.618Z,1.40
2018-06-25T22:49:37.293Z,2.20
2018-06-25T22:54:31.865Z,2.47
2018-06-25T22:59:26.410Z,1.67
2018-06-25T23:04:20.978Z,2.43
2018-06-25T23:09:15.536Z,1.30
2018-06-25T23:14:10.062Z,1.40
2018-06-25T23:19:04.583Z,1.77
2018-06-25T23:23:59.122Z,2.17
2018-06-25T23:28:53.710Z,1.83
2018-06-25T23:33:48.223Z,1.90
2018-06-25T23:38:42.751Z,4.70
2018-06-25T23:43:37.348Z,2.50
2018-06-25T23:48:31.894Z,3.00
2018-06-25T23:53:26.486Z,1.57
2018-06-25T23:58:21.361Z,2.10
